Time;durP1;ratioP1;P1;durP2;ratioP2;P2;SDS_P1;SDS_P2;PMS_P1;PMS_P2;Temp;Humidity;BMP_temperature;BMP_pressure;BME280_temperature;BME280_humidity;BME280_pressure;Samples;Min_cycle;Max_cycle;Signal;HPM_P1;HPM_P2
2022/11/16 12:10:49;;;;;;;17.40;8.40;;;;;;;9.70;78.62;98512.61;30950;1325;3013225;-70
2022/11/16 12:13:37;;;;;;;8.80;4.80;;;;;;;9.75;78.48;98506.77;24554;1330;3068563;-67
2022/11/16 12:16:10;;;;;;;16.90;7.30;;;;;;;10.59;76.13;98491.37;24586;1339;3049838;-68
2022/11/16 12:18:59;;;;;;;17.90;8.60;;;;;;;11.10;74.06;98488.15;24578;1334;3056630;-70
2022/11/16 12:21:41;;;;;;;16.30;8.30;;;;;;;11.10;73.99;98482.54;24563;1331;3053386;-72
2022/11/16 12:24:29;;;;;;;18.80;9.70;;;;;;;10.90;74.17;98481.95;23987;1333;4342493;-72
2022/11/16 12:27:07;;;;;;;18.90;9.40;;;;;;;10.63;74.97;98489.47;24555;1333;3050527;-70
2022/11/16 12:29:58;;;;;;;17.60;9.80;;;;;;;10.44;75.97;98490.92;24620;1332;3053311;-67
2022/11/16 12:32:59;;;;;;;20.80;9.40;;;;;;;10.26;76.41;98492.40;24594;1336;3048696;-70
2022/11/16 12:35:47;;;;;;;19.60;9.70;;;;;;;10.03;77.37;98495.50;24541;1332;3068201;-69
2022/11/16 12:38:24;;;;;;;16.50;8.90;;;;;;;9.89;78.10;98496.65;24563;1326;3051093;-72
2022/11/16 12:41:21;;;;;;;12.40;5.60;;;;;;;9.85;78.34;98501.17;24579;1331;3056522;-74
2022/11/16 12:44:10;;;;;;;15.90;7.60;;;;;;;10.55;76.80;98490.25;24641;1333;3052535;-75
2022/11/16 12:46:55;;;;;;;18.30;8.90;;;;;;;10.99;74.68;98483.75;24505;1342;3053651;-73
2022/11/16 12:49:34;;;;;;;27.50;12.90;;;;;;;10.97;74.82;98486.00;24630;1332;3052100;-75
2022/11/16 12:52:05;;;;;;;27.40;13.40;;;;;;;10.76;75.23;98484.48;24638;1331;3052582;-73
2022/11/16 12:54:40;;;;;;;24.90;12.90;;;;;;;10.57;75.71;98483.59;24620;1324;3026356;-72
2022/11/16 12:57:15;;;;;;;24.60;12.10;;;;;;;10.40;76.20;98485.23;24561;1321;3068579;-74
2022/11/16 12:59:50;;;;;;;28.80;14.10;;;;;;;10.24;77.00;98487.62;24618;1332;3050346;-70
2022/11/16 13:02:38;;;;;;;30.10;15.10;;;;;;;10.10;77.63;98486.63;24562;1333;3056321;-64
2022/11/16 13:05:20;;;;;;;19.30;7.70;;;;;;;9.99;78.34;98487.18;24568;1335;3052837;-65
2022/11/16 13:07:51;;;;;;;16.80;8.00;;;;;;;10.65;76.97;98480.17;24535;1331;3052330;-69
2022/11/16 13:10:23;;;;;;;15.30;8.20;;;;;;;11.13;75.02;98477.42;24606;1339;3025093;-65
2022/11/16 13:13:02;;;;;;;24.40;9.00;;;;;;;11.24;74.63;98472.35;24636;1331;3052643;-68
2022/11/16 13:15:33;;;;;;;17.80;9.50;;;;;;;11.02;74.68;98473.70;24556;1331;3049967;-66
2022/11/16 13:18:04;;;;;;;19.70;10.00;;;;;;;10.73;75.74;98473.63;24611;1334;3025294;-72
2022/11/16 13:20:47;;;;;;;20.90;11.20;;;;;;;10.53;76.68;98478.01;24560;1331;3026804;-69
2022/11/16 13:23:32;;;;;;;24.90;12.50;;;;;;;10.35;77.23;98479.67;24570;1330;3058292;-71
2022/11/16 13:26:26;;;;;;;22.80;12.20;;;;;;;10.21;77.58;98474.96;24569;1331;3051539;-70
2022/11/16 13:29:10;;;;;;;29.80;14.10;;;;;;;10.07;78.08;98475.61;24565;1340;3052428;-69
2022/11/16 13:31:47;;;;;;;12.30;6.80;;;;;;;10.02;78.66;98478.94;24542;1330;3050656;-68
2022/11/16 13:34:22;;;;;;;17.10;8.70;;;;;;;10.62;77.35;98468.68;24592;1325;3053002;-67
2022/11/16 13:36:51;;;;;;;18.30;9.40;;;;;;;11.13;75.68;98457.21;24540;1333;3049635;-71
2022/11/16 13:39:56;;;;;;;15.50;9.00;;;;;;;11.19;75.44;98454.89;24548;1321;3026178;-70
2022/11/16 14:40:20;;;;;;;10.70;5.50;;;;;;;7.93;91.96;98452.95;30945;1337;3012676;-64
2022/11/16 14:42:55;;;;;;;7.40;3.70;;;;;;;8.56;90.80;98449.95;24443;1346;3028261;-65
2022/11/16 14:45:26;;;;;;;8.50;4.70;;;;;;;9.28;87.31;98447.24;24463;1336;3048848;-66
2022/11/16 14:48:15;;;;;;;8.70;4.70;;;;;;;9.35;85.91;98444.09;24523;1338;3025814;-65
2022/11/16 14:51:10;;;;;;;10.10;5.70;;;;;;;9.41;85.65;98440.73;24515;1336;3053107;-65
2022/11/16 14:53:44;;;;;;;9.80;6.00;;;;;;;9.23;85.62;98442.73;23942;1339;4422482;-64
2022/11/16 14:56:14;;;;;;;7.50;3.70;;;;;;;9.02;85.96;98444.55;24533;1331;3056855;-64
2022/11/16 14:58:54;;;;;;;7.30;4.30;;;;;;;9.29;85.55;98440.34;24523;1339;3025819;-67
2022/11/16 17:12:42;;;;;;;10.00;5.30;;;;;;;7.26;100.00;98379.51;30940;1334;3013048;-70
2022/11/16 17:15:12;;;;;;;9.20;5.10;;;;;;;8.14;99.36;98373.34;24483;1336;3027269;-68
2022/11/16 17:17:42;;;;;;;9.20;5.10;;;;;;;8.54;94.10;98366.30;24492;1336;3027184;-73
2022/11/16 17:20:12;;;;;;;11.00;5.30;;;;;;;8.92;91.48;98365.61;24550;1337;3051867;-73
2022/11/16 17:22:41;;;;;;;10.20;5.80;;;;;;;8.68;90.38;98364.33;24572;1334;3027484;-71
2022/11/16 17:25:11;;;;;;;11.00;5.70;;;;;;;8.63;90.53;98365.00;23868;1334;4240314;-70
2022/11/16 17:27:40;;;;;;;9.20;4.20;;;;;;;8.51;90.60;98362.84;24563;1343;3027445;-70
2022/11/16 17:30:10;;;;;;;8.60;4.40;;;;;;;8.86;89.39;98354.83;24537;1326;3026896;-70
2022/11/16 17:32:40;;;;;;;9.40;4.80;;;;;;;9.33;86.82;98350.26;24523;1340;3052242;-68
2022/11/16 17:35:09;;;;;;;12.40;6.60;;;;;;;9.39;85.75;98344.05;24574;1334;3026033;-66
2022/11/16 17:37:39;;;;;;;12.30;6.80;;;;;;;9.20;86.22;98350.45;24561;1340;3050435;-67
2022/11/16 17:40:08;;;;;;;10.20;6.10;;;;;;;9.05;86.76;98347.89;24544;1334;3027174;-70
2022/11/16 17:42:37;;;;;;;11.30;6.40;;;;;;;8.81;87.32;98342.09;24564;1339;3053900;-72
2022/11/16 17:45:06;;;;;;;8.00;4.10;;;;;;;8.62;88.34;98343.29;24529;1334;3027313;-72
2022/11/16 17:47:38;;;;;;;7.60;4.60;;;;;;;9.24;87.38;98331.86;24548;1326;3053610;-69
2022/11/16 17:50:07;;;;;;;11.90;6.10;;;;;;;9.57;84.48;98326.49;24562;1325;3027692;-69
2022/11/16 17:52:37;;;;;;;11.10;5.60;;;;;;;9.51;84.16;98328.15;24561;1334;3057864;-74
2022/11/16 17:55:07;;;;;;;14.10;7.80;;;;;;;9.30;84.30;98332.78;24552;1324;3026101;-72
2022/11/16 17:57:37;;;;;;;9.80;5.80;;;;;;;9.08;85.56;98342.98;24628;1333;3049718;-68
2022/11/16 18:00:08;;;;;;;12.60;6.60;;;;;;;8.89;86.09;98335.02;24572;1340;3027528;-68
2022/11/16 18:02:37;;;;;;;7.30;3.20;;;;;;;8.82;86.60;98336.21;24504;1334;3027631;-70
2022/11/16 18:05:07;;;;;;;5.80;4.10;;;;;;;9.33;85.25;98322.26;24622;1334;3026056;-72
2022/11/16 18:07:39;;;;;;;6.50;4.50;;;;;;;9.59;83.02;98315.65;24579;1332;3027086;-69
2022/11/16 18:10:08;;;;;;;6.60;4.20;;;;;;;9.68;82.78;98314.95;24585;1324;3026654;-69
2022/11/16 18:12:37;;;;;;;8.50;5.10;;;;;;;9.41;83.02;98320.52;24579;1334;3026432;-68
2022/11/16 18:15:09;;;;;;;8.70;5.10;;;;;;;9.15;84.24;98326.39;24570;1324;3027634;-67
2022/11/16 18:17:40;;;;;;;8.80;5.40;;;;;;;9.06;84.64;98322.70;24563;1327;3028399;-74
2022/11/16 18:20:10;;;;;;;5.10;3.10;;;;;;;8.88;85.47;98331.10;24600;1333;3027417;-72
2022/11/16 18:22:40;;;;;;;6.40;3.90;;;;;;;9.19;85.01;98318.42;24586;1324;3028547;-68
2022/11/16 18:25:09;;;;;;;7.60;4.00;;;;;;;9.43;83.36;98308.98;24641;1324;3026802;-68
2022/11/16 18:27:38;;;;;;;6.70;4.30;;;;;;;9.52;82.86;98310.38;24533;1330;3057727;-72
2022/11/16 18:30:08;;;;;;;7.40;4.20;;;;;;;9.42;82.88;98310.81;24587;1332;3026344;-70
2022/11/16 18:32:39;;;;;;;6.20;4.50;;;;;;;9.30;83.11;98311.83;24632;1327;3051345;-74
2022/11/16 18:35:08;;;;;;;6.30;4.00;;;;;;;8.97;84.57;98314.73;24554;1334;3027474;-66
2022/11/16 18:37:38;;;;;;;4.40;2.50;;;;;;;8.79;85.54;98319.71;24542;1334;3026984;-73
2022/11/16 18:40:08;;;;;;;4.70;2.80;;;;;;;9.21;84.70;98312.32;24602;1324;3025904;-71
2022/11/16 18:42:37;;;;;;;5.30;3.50;;;;;;;9.49;83.04;98303.45;24571;1326;3056640;-70
2022/11/16 18:45:07;;;;;;;6.10;3.80;;;;;;;9.62;82.38;98303.17;24586;1327;3027599;-70
2022/11/16 18:47:36;;;;;;;5.60;3.50;;;;;;;9.16;83.31;98308.48;24595;1340;3026588;-74
2022/11/16 18:50:10;;;;;;;6.90;3.90;;;;;;;9.06;84.25;98307.15;24563;1334;3026834;-71
2022/11/16 18:53:04;;;;;;;7.00;4.20;;;;;;;8.94;85.06;98309.07;24562;1340;3052079;-66
2022/11/16 18:55:34;;;;;;;3.90;2.50;;;;;;;8.93;85.12;98305.80;24493;1333;3027821;-69
2022/11/16 18:58:02;;;;;;;3.60;2.40;;;;;;;9.26;84.38;98300.92;24560;1318;3027144;-67
2022/11/16 19:00:31;;;;;;;6.20;3.20;;;;;;;9.52;83.07;98289.61;24520;1333;3052914;-67
2022/11/16 19:03:01;;;;;;;4.00;2.70;;;;;;;9.65;82.02;98281.46;24604;1327;3027576;-69
2022/11/16 19:05:34;;;;;;;5.30;2.90;;;;;;;9.37;82.49;98285.45;24532;1334;3057307;-71
2022/11/16 19:08:04;;;;;;;3.90;2.70;;;;;;;8.99;84.18;98287.74;24528;1328;3026830;-69
2022/11/16 19:10:37;;;;;;;4.20;2.60;;;;;;;8.81;85.09;98289.55;24600;1327;3026897;-69
2022/11/16 19:13:07;;;;;;;3.30;2.30;;;;;;;8.74;85.74;98289.65;24534;1334;3056560;-73
2022/11/16 19:15:36;;;;;;;2.80;1.90;;;;;;;8.74;85.68;98283.22;24577;1327;3027372;-66
2022/11/16 19:18:06;;;;;;;3.40;2.10;;;;;;;8.98;85.67;98275.58;24499;1334;3050596;-68
2022/11/16 19:20:35;;;;;;;3.20;1.80;;;;;;;9.60;83.08;98262.54;24603;1334;3026657;-72
2022/11/16 19:23:05;;;;;;;3.20;2.30;;;;;;;9.62;82.35;98260.88;24585;1333;3028412;-75
2022/11/16 19:25:33;;;;;;;3.00;2.00;;;;;;;9.44;82.90;98262.23;24556;1327;3026944;-66
2022/11/16 19:28:03;;;;;;;4.40;2.40;;;;;;;9.38;83.35;98263.41;24660;1332;3055579;-69
2022/11/16 19:30:32;;;;;;;5.10;3.30;;;;;;;9.22;83.65;98264.73;24629;1328;3026944;-71
2022/11/16 19:33:02;;;;;;;6.30;3.50;;;;;;;8.99;84.55;98268.71;24614;1332;3027379;-69
2022/11/16 19:35:32;;;;;;;3.10;2.10;;;;;;;8.78;85.79;98270.41;24520;1324;3057429;-72
2022/11/16 19:38:01;;;;;;;4.00;2.40;;;;;;;9.31;84.51;98259.52;24646;1324;3029236;-72
2022/11/16 19:40:30;;;;;;;7.20;3.40;;;;;;;9.86;81.90;98252.75;24604;1334;3049706;-74
2022/11/16 19:43:24;;;;;;;10.70;4.50;;;;;;;9.85;80.98;98247.92;25042;1334;3056087;-71
2022/11/16 19:45:53;;;;;;;8.50;4.40;;;;;;;9.59;81.57;98247.27;24973;1325;3027799;-72
2022/11/16 19:48:22;;;;;;;6.80;4.30;;;;;;;9.28;82.36;98249.65;25153;1332;3049963;-70
2022/11/16 19:50:51;;;;;;;8.10;5.10;;;;;;;9.08;83.18;98251.79;24608;1326;3029780;-72
2022/11/16 19:53:22;;;;;;;8.80;5.20;;;;;;;8.91;83.62;98258.27;24546;1330;3069555;-65
2022/11/16 19:55:53;;;;;;;5.40;3.00;;;;;;;8.64;85.24;98262.85;24584;1334;3028981;-72
2022/11/16 19:58:22;;;;;;;6.90;3.90;;;;;;;9.12;84.31;98251.66;24552;1334;3028225;-69
2022/11/16 20:00:51;;;;;;;8.10;4.50;;;;;;;9.32;82.93;98243.39;24628;1334;3027391;-68
2022/11/16 20:03:20;;;;;;;7.80;4.30;;;;;;;9.59;82.14;98238.38;24585;1340;3049657;-70
2022/11/16 20:05:50;;;;;;;7.10;4.20;;;;;;;9.40;82.08;98243.81;24539;1325;3028449;-73
2022/11/16 20:08:19;;;;;;;7.70;4.10;;;;;;;9.15;82.79;98241.10;24534;1340;3026583;-70
2022/11/16 20:10:49;;;;;;;8.40;3.90;;;;;;;8.88;83.96;98238.91;24514;1334;3050250;-74
2022/11/16 20:13:24;;;;;;;5.80;3.70;;;;;;;8.67;85.04;98236.06;24558;1332;3058119;-74
2022/11/16 20:15:54;;;;;;;5.60;3.50;;;;;;;8.66;85.62;98229.19;24565;1334;3028060;-71
2022/11/16 20:18:23;;;;;;;6.40;3.10;;;;;;;9.19;84.03;98219.16;24620;1331;3027364;-70
2022/11/16 20:20:54;;;;;;;9.60;4.80;;;;;;;9.65;81.66;98215.90;24553;1340;3057045;-69
2022/11/16 20:23:23;;;;;;;11.60;5.50;;;;;;;9.64;80.98;98213.83;24619;1333;3027674;-67
2022/11/16 20:25:52;;;;;;;9.90;5.30;;;;;;;9.47;81.37;98216.37;24535;1334;3050035;-69
2022/11/16 20:28:21;;;;;;;13.00;6.90;;;;;;;9.16;82.33;98216.21;24583;1330;3028322;-70
2022/11/16 20:30:50;;;;;;;11.40;6.00;;;;;;;8.99;83.35;98218.89;24508;1326;3068244;-66
2022/11/16 20:33:19;;;;;;;11.00;5.60;;;;;;;8.87;83.91;98215.98;24574;1334;3027534;-69
2022/11/16 20:35:48;;;;;;;7.10;3.30;;;;;;;8.68;85.07;98220.48;24540;1334;3048856;-66
2022/11/16 20:38:16;;;;;;;5.60;3.20;;;;;;;9.18;83.98;98212.11;24488;1334;3027065;-72
2022/11/16 20:40:46;;;;;;;6.50;4.10;;;;;;;9.66;81.85;98208.67;24563;1340;3052885;-72
2022/11/16 20:43:16;;;;;;;5.60;3.40;;;;;;;9.51;81.63;98208.54;24541;1339;3029592;-67
2022/11/16 20:45:50;;;;;;;7.00;4.00;;;;;;;9.26;82.36;98210.79;24610;1334;3026458;-68
2022/11/16 20:48:19;;;;;;;6.30;3.90;;;;;;;9.09;82.93;98208.52;24580;1333;3053291;-65
2022/11/16 20:50:52;;;;;;;6.70;4.70;;;;;;;8.85;83.66;98210.84;24576;1333;3028922;-67
2022/11/16 20:53:22;;;;;;;6.90;4.00;;;;;;;8.60;84.81;98214.25;24537;1334;3051450;-69
2022/11/16 20:55:51;;;;;;;4.70;2.70;;;;;;;8.48;85.82;98214.90;24600;1334;3026321;-67
2022/11/16 20:58:21;;;;;;;5.30;3.00;;;;;;;8.96;84.91;98205.68;24571;1339;3054660;-66
2022/11/16 21:00:50;;;;;;;6.90;3.80;;;;;;;9.55;82.34;98192.52;24593;1333;3026077;-70
2022/11/16 21:03:19;;;;;;;8.10;4.60;;;;;;;9.47;81.42;98185.80;24553;1324;3053656;-68
2022/11/16 21:05:49;;;;;;;8.60;4.90;;;;;;;9.16;82.17;98185.66;24581;1323;3027335;-65
2022/11/16 21:08:19;;;;;;;9.00;5.50;;;;;;;8.94;82.49;98186.08;24595;1331;3057520;-67
2022/11/16 21:10:48;;;;;;;9.20;5.30;;;;;;;8.80;83.38;98183.29;24541;1324;3028442;-70
2022/11/16 21:16:10;;;;;;;6.50;3.90;;;;;;;8.45;84.80;98186.12;24566;1325;3056781;-71
2022/11/16 21:18:39;;;;;;;7.70;3.70;;;;;;;9.01;83.79;98178.59;24647;1333;3027162;-72
2022/11/16 21:21:11;;;;;;;7.60;4.30;;;;;;;9.63;81.07;98169.69;24576;1327;3029811;-68
2022/11/16 21:23:50;;;;;;;8.90;4.20;;;;;;;9.62;80.05;98168.59;24632;1334;3057361;-66
2022/11/16 21:26:21;;;;;;;8.40;4.40;;;;;;;9.32;80.57;98166.44;24649;1324;3053454;-67
2022/11/16 21:28:50;;;;;;;6.50;4.30;;;;;;;9.06;81.54;98172.10;24560;1340;3027742;-66
2022/11/16 21:31:24;;;;;;;9.40;4.40;;;;;;;8.85;82.33;98170.13;24640;1324;3027194;-67
2022/11/16 21:33:54;;;;;;;7.00;3.90;;;;;;;8.67;82.84;98176.04;24576;1334;3052650;-66
2022/11/16 21:36:25;;;;;;;5.70;2.90;;;;;;;8.54;83.21;98170.70;24550;1333;3027428;-64
2022/11/16 21:38:54;;;;;;;6.40;2.80;;;;;;;8.96;82.22;98166.70;24532;1333;3052868;-66
2022/11/16 21:41:23;;;;;;;4.50;2.60;;;;;;;9.35;80.03;98159.06;24526;1336;3027798;-67
2022/11/16 21:43:52;;;;;;;5.60;3.30;;;;;;;9.46;79.11;98155.08;24539;1325;3055652;-64
2022/11/16 21:46:23;;;;;;;6.20;3.00;;;;;;;9.09;79.45;98155.80;24618;1324;3027526;-68
2022/11/16 21:48:55;;;;;;;4.90;3.00;;;;;;;8.89;79.85;98158.52;24581;1324;3053527;-70
2022/11/16 21:51:25;;;;;;;6.60;3.40;;;;;;;8.72;80.10;98156.98;24603;1334;3028383;-66
2022/11/16 21:53:54;;;;;;;5.90;3.60;;;;;;;8.50;80.88;98155.46;24547;1324;3028161;-67
2022/11/16 21:56:24;;;;;;;7.80;3.60;;;;;;;8.21;82.10;98153.30;24593;1324;3028746;-66
2022/11/16 21:58:53;;;;;;;5.00;2.40;;;;;;;8.19;82.57;98150.80;24620;1324;3052472;-71
2022/11/16 22:01:22;;;;;;;4.60;2.50;;;;;;;8.62;81.42;98140.60;24555;1332;3026398;-70
2022/11/16 22:09:26;;;;;;;7.30;3.80;;;;;;;9.13;79.04;98123.54;24547;1325;3053225;-67
2022/11/16 22:11:55;;;;;;;5.30;3.10;;;;;;;8.88;79.85;98120.52;24645;1324;3029169;-66
2022/11/16 22:14:24;;;;;;;5.90;3.30;;;;;;;8.60;81.00;98120.01;24538;1339;3051830;-67
2022/11/16 22:16:53;;;;;;;4.60;3.10;;;;;;;8.45;81.84;98116.00;24540;1334;3025793;-71
2022/11/16 22:19:24;;;;;;;5.00;2.30;;;;;;;8.38;82.34;98113.59;24568;1337;3028094;-66
2022/11/16 22:21:52;;;;;;;6.10;2.40;;;;;;;8.79;81.65;98111.21;24614;1324;3030632;-68
2022/11/16 22:24:21;;;;;;;6.50;3.10;;;;;;;9.30;80.07;98099.73;24545;1333;3051752;-72
2022/11/16 22:26:50;;;;;;;7.10;3.20;;;;;;;9.22;79.57;98097.31;24616;1333;3026928;-67
2022/11/16 22:29:19;;;;;;;5.60;2.90;;;;;;;9.19;79.80;98093.02;24566;1334;3053073;-65
2022/11/16 22:31:50;;;;;;;10.60;3.60;;;;;;;9.11;79.72;98088.95;24627;1340;3028116;-63
2022/11/16 22:34:20;;;;;;;8.00;3.40;;;;;;;8.73;80.82;98086.89;24634;1324;3030234;-68
2022/11/16 22:36:49;;;;;;;7.60;3.60;;;;;;;8.61;81.52;98086.56;24629;1327;3026499;-70
2022/11/16 22:39:18;;;;;;;9.20;4.10;;;;;;;8.50;81.93;98085.30;24507;1333;3051647;-67
2022/11/16 22:41:48;;;;;;;6.90;2.90;;;;;;;8.30;83.16;98083.88;24568;1326;3029514;-67
2022/11/16 22:44:17;;;;;;;4.80;2.60;;;;;;;8.67;82.61;98080.81;24595;1333;3027067;-65
2022/11/16 22:46:48;;;;;;;7.00;3.90;;;;;;;9.25;80.44;98071.09;24562;1332;3051888;-70
2022/11/16 22:49:18;;;;;;;5.00;3.30;;;;;;;9.28;79.88;98064.34;24545;1340;3026202;-68
2022/11/16 22:51:49;;;;;;;7.90;4.10;;;;;;;9.04;80.22;98062.19;24614;1333;3027763;-70
2022/11/16 22:54:19;;;;;;;7.10;4.30;;;;;;;8.84;80.99;98062.00;24583;1334;3028493;-72
2022/11/16 22:56:48;;;;;;;7.80;4.10;;;;;;;8.68;81.80;98067.38;24553;1332;3027898;-66
2022/11/16 22:59:19;;;;;;;7.10;3.70;;;;;;;8.53;82.37;98063.77;24598;1337;3050155;-67
2022/11/16 23:01:48;;;;;;;6.90;3.00;;;;;;;8.31;83.08;98065.55;24556;1330;3027695;-69
2022/11/16 23:04:17;;;;;;;8.70;3.00;;;;;;;8.71;83.10;98064.35;24622;1327;3052859;-66
2022/11/16 23:06:46;;;;;;;6.40;3.30;;;;;;;9.33;80.56;98057.03;24564;1317;3029387;-63
2022/11/16 23:09:15;;;;;;;5.90;3.60;;;;;;;9.23;79.90;98055.91;24565;1324;3051956;-66
2022/11/16 23:17:21;;;;;;;6.00;3.40;;;;;;;8.66;82.01;98062.08;24540;1330;3068930;-68
2022/11/16 23:28:15;;;;;;;4.70;2.90;;;;;;;9.58;79.75;98051.23;24611;1340;3053526;-68
2022/11/16 23:30:44;;;;;;;6.10;3.40;;;;;;;9.60;79.48;98051.95;24512;1336;3027117;-66
2022/11/16 23:33:13;;;;;;;6.00;3.60;;;;;;;9.37;79.79;98051.96;24598;1334;3050823;-69
2022/11/16 23:35:42;;;;;;;6.50;3.60;;;;;;;9.17;80.72;98051.59;24567;1320;3028982;-63
2022/11/16 23:38:11;;;;;;;7.60;4.00;;;;;;;8.93;81.43;98050.52;24584;1334;3027800;-65
2022/11/16 23:40:40;;;;;;;7.30;4.10;;;;;;;8.81;82.20;98044.77;24561;1334;3051685;-66
2022/11/16 23:45:58;;;;;;;5.70;3.00;;;;;;;9.19;81.91;98039.41;24534;1333;3052047;-66
2022/11/16 23:48:27;;;;;;;4.40;2.90;;;;;;;9.68;80.02;98030.48;24584;1331;3026852;-65
2022/11/16 23:50:56;;;;;;;5.60;3.50;;;;;;;9.67;79.53;98027.81;24562;1334;3052503;-65
2022/11/16 23:53:25;;;;;;;6.60;3.90;;;;;;;9.53;79.89;98025.03;24590;1324;3026937;-64
2022/11/16 23:56:00;;;;;;;5.80;3.70;;;;;;;9.37;80.42;98021.23;24573;1332;3026104;-66
2022/11/16 23:58:29;;;;;;;9.30;4.50;;;;;;;9.21;81.00;98026.16;24574;1335;3052246;-66
